FDX5530 MMQT-KMEM
Flight info
| Callsign | FDX5530 |
|---|---|
| Flight time | N/A |
| Altitude | 35000 |
| Route | ROGDI1 ROGDI UJ14 TMN UJ35 MAM DCT BRO DCT PSX J29 ELD HOBRK4 |
| Aircraft | B752/M-SDE3FGHIM3RWXY/LB1 |
Departure
| Time | 2026-05-09 05:19 |
|---|---|
| Airport | Querétaro Intercontinental Airport (MMQT) |
Arrival
| Time | N/A |
|---|---|
| Airport | Memphis International Airport (KMEM) |
| Time | Latitude | Longitude | Altitude | Speed | Heading |
|---|---|---|---|---|---|
| 2026-05-09 04:43 | 20.62310 | -100.19401 | 6284 ft | 0 kts | 11° |
| 2026-05-09 04:48 | 20.62302 | -100.19402 | 6284 ft | 2 kts | 11° |
| 2026-05-09 04:48 | 20.62288 | -100.19405 | 6284 ft | 2 kts | 11° |
| 2026-05-09 04:49 | 20.62273 | -100.19409 | 6284 ft | 2 kts | 11° |
| 2026-05-09 04:49 | 20.62258 | -100.19412 | 6284 ft | 2 kts | 11° |
| 2026-05-09 04:49 | 20.62243 | -100.19415 | 6284 ft | 2 kts | 30° |
| 2026-05-09 04:49 | 20.62232 | -100.19427 | 6284 ft | 2 kts | 60° |
| 2026-05-09 04:50 | 20.62228 | -100.19442 | 6284 ft | 2 kts | 90° |
| 2026-05-09 04:50 | 20.62229 | -100.19449 | 6284 ft | 1 kts | 103° |
| 2026-05-09 04:50 | 20.62229 | -100.19453 | 6284 ft | 0 kts | 100° |
| 2026-05-09 05:02 | 20.62226 | -100.19435 | 6284 ft | 3 kts | 99° |
| 2026-05-09 05:02 | 20.62222 | -100.19408 | 6284 ft | 4 kts | 100° |
| 2026-05-09 05:02 | 20.62216 | -100.19373 | 6284 ft | 4 kts | 101° |
| 2026-05-09 05:02 | 20.62208 | -100.19338 | 6285 ft | 4 kts | 108° |
| 2026-05-09 05:03 | 20.62191 | -100.19313 | 6285 ft | 3 kts | 145° |
| 2026-05-09 05:03 | 20.62166 | -100.19304 | 6285 ft | 4 kts | 171° |
| 2026-05-09 05:03 | 20.62131 | -100.19304 | 6285 ft | 5 kts | 186° |
| 2026-05-09 05:03 | 20.62091 | -100.19310 | 6285 ft | 6 kts | 188° |
| 2026-05-09 05:04 | 20.62055 | -100.19309 | 6285 ft | 2 kts | 193° |
| 2026-05-09 05:04 | 20.62048 | -100.19321 | 6285 ft | 2 kts | 254° |
| 2026-05-09 05:04 | 20.62049 | -100.19348 | 6285 ft | 4 kts | 278° |
| 2026-05-09 05:04 | 20.62055 | -100.19389 | 6285 ft | 5 kts | 280° |
| 2026-05-09 05:05 | 20.62063 | -100.19437 | 6284 ft | 6 kts | 280° |
| 2026-05-09 05:05 | 20.62072 | -100.19487 | 6284 ft | 6 kts | 281° |
| 2026-05-09 05:05 | 20.62082 | -100.19539 | 6283 ft | 7 kts | 283° |
| 2026-05-09 05:05 | 20.62093 | -100.19591 | 6283 ft | 7 kts | 281° |
| 2026-05-09 05:06 | 20.62102 | -100.19643 | 6283 ft | 6 kts | 280° |
| 2026-05-09 05:06 | 20.62110 | -100.19694 | 6282 ft | 7 kts | 280° |
| 2026-05-09 05:06 | 20.62120 | -100.19746 | 6282 ft | 7 kts | 282° |
| 2026-05-09 05:06 | 20.62130 | -100.19798 | 6282 ft | 7 kts | 282° |
| 2026-05-09 05:07 | 20.62140 | -100.19849 | 6281 ft | 7 kts | 281° |
| 2026-05-09 05:07 | 20.62149 | -100.19902 | 6281 ft | 7 kts | 281° |
| 2026-05-09 05:07 | 20.62158 | -100.19954 | 6280 ft | 7 kts | 281° |
| 2026-05-09 05:07 | 20.62168 | -100.20006 | 6280 ft | 7 kts | 281° |
| 2026-05-09 05:08 | 20.62178 | -100.20057 | 6280 ft | 6 kts | 282° |
| 2026-05-09 05:08 | 20.62186 | -100.20109 | 6280 ft | 6 kts | 275° |
| 2026-05-09 05:08 | 20.62173 | -100.20152 | 6279 ft | 6 kts | 227° |
| 2026-05-09 05:08 | 20.62144 | -100.20169 | 6279 ft | 5 kts | 200° |
| 2026-05-09 05:09 | 20.62142 | -100.20170 | 6279 ft | 0 kts | 198° |
| 2026-05-09 05:16 | 20.62141 | -100.20170 | 6279 ft | 1 kts | 198° |
| 2026-05-09 05:16 | 20.62119 | -100.20177 | 6279 ft | 4 kts | 195° |
| 2026-05-09 05:16 | 20.62084 | -100.20184 | 6279 ft | 5 kts | 184° |
| 2026-05-09 05:16 | 20.62049 | -100.20174 | 6279 ft | 4 kts | 142° |
| 2026-05-09 05:17 | 20.62032 | -100.20146 | 6280 ft | 4 kts | 113° |
| 2026-05-09 05:17 | 20.62027 | -100.20130 | 6280 ft | 0 kts | 107° |
| 2026-05-09 05:18 | 20.62013 | -100.20067 | 6280 ft | 31 kts | 101° |
| 2026-05-09 05:18 | 20.61943 | -100.19640 | 6283 ft | 84 kts | 100° |
| 2026-05-09 05:18 | 20.61795 | -100.18843 | 6289 ft | 133 kts | 102° |
| 2026-05-09 05:19 | 20.61531 | -100.17793 | 6586 ft | 149 kts | 102° |
| 2026-05-09 05:19 | 20.61255 | -100.16751 | 7184 ft | 145 kts | 100° |
| 2026-05-09 05:19 | 20.61151 | -100.15683 | 7649 ft | 147 kts | 83° |